createdAt,value
2022-08-29T00:02:29.631Z,2.60
2022-08-29T00:05:04.865Z,3.15
2022-08-29T00:07:37.060Z,2.50
2022-08-29T00:10:10.032Z,2.38
2022-08-29T00:12:42.023Z,3.17
2022-08-29T00:15:15.972Z,2.20
2022-08-29T00:17:48.009Z,3.45
2022-08-29T00:20:29.131Z,2.58
2022-08-29T00:23:07.148Z,3.20
2022-08-29T00:25:40.301Z,2.85
2022-08-29T00:28:13.957Z,2.60
2022-08-29T00:30:46.998Z,3.13
2022-08-29T00:33:18.547Z,3.00
2022-08-29T00:35:53.226Z,2.67
2022-08-29T00:38:27.723Z,2.88
2022-08-29T00:41:01.672Z,2.80
2022-08-29T00:43:36.977Z,3.20
2022-08-29T00:46:47.204Z,2.58
2022-08-29T00:49:34.345Z,2.75
2022-08-29T00:52:14.837Z,3.58
2022-08-29T00:54:49.653Z,2.80
2022-08-29T00:57:23.960Z,2.60
2022-08-29T00:59:56.106Z,3.42
2022-08-29T01:02:28.945Z,2.95
2022-08-29T01:05:01.474Z,2.30
2022-08-29T01:07:36.498Z,2.88
2022-08-29T01:10:34.612Z,3.10
2022-08-29T01:13:04.247Z,2.65
2022-08-29T01:15:37.510Z,2.50
2022-08-29T01:18:10.875Z,2.40
2022-08-29T01:20:53.049Z,3.45
2022-08-29T01:23:31.529Z,3.10
2022-08-29T01:26:07.930Z,2.90
2022-08-29T01:28:43.381Z,2.60
2022-08-29T01:31:37.249Z,3.15
2022-08-29T01:34:09.979Z,2.92
2022-08-29T01:36:45.465Z,2.70
2022-08-29T01:39:17.664Z,2.53
2022-08-29T01:41:53.148Z,3.45
2022-08-29T01:44:27.581Z,2.92
2022-08-29T01:47:03.477Z,3.10
2022-08-29T01:49:38.492Z,2.85
2022-08-29T01:52:13.301Z,2.70
2022-08-29T01:54:45.098Z,3.10
2022-08-29T01:57:21.197Z,2.65
2022-08-29T01:59:52.881Z,2.50
2022-08-29T02:02:29.217Z,2.60
2022-08-29T02:05:01.259Z,2.78
2022-08-29T02:07:32.763Z,2.75
2022-08-29T02:10:04.828Z,2.95
2022-08-29T02:12:39.763Z,2.65
2022-08-29T02:15:13.077Z,2.40
2022-08-29T02:17:48.564Z,3.35
2022-08-29T02:20:20.360Z,2.95
2022-08-29T02:22:52.328Z,2.20
2022-08-29T02:25:36.310Z,2.53
2022-08-29T02:28:12.432Z,2.85
2022-08-29T02:30:45.084Z,3.03
2022-08-29T02:33:17.452Z,2.92
2022-08-29T02:35:52.864Z,2.63
2022-08-29T02:38:25.101Z,3.08
2022-08-29T02:40:57.711Z,3.05
2022-08-29T02:43:32.592Z,2.30
2022-08-29T02:46:05.207Z,2.70
2022-08-29T02:48:37.294Z,2.67
2022-08-29T02:51:09.039Z,2.60
2022-08-29T02:53:40.934Z,2.92
2022-08-29T02:56:15.733Z,2.95
2022-08-29T02:58:51.509Z,2.45
2022-08-29T03:01:24.456Z,2.50
2022-08-29T03:03:56.309Z,2.83
2022-08-29T03:06:28.071Z,2.58
2022-08-29T03:09:00.640Z,2.95
2022-08-29T03:11:33.460Z,2.92
2022-08-29T03:14:09.318Z,2.45
2022-08-29T03:16:41.583Z,2.60
2022-08-29T03:19:13.244Z,2.72
2022-08-29T03:21:45.524Z,2.63
2022-08-29T03:24:25.709Z,2.55
2022-08-29T03:26:59.522Z,2.75
2022-08-29T03:29:35.601Z,2.47
2022-08-29T03:32:08.232Z,2.50
2022-08-29T03:34:40.566Z,2.33
2022-08-29T03:37:12.700Z,2.67
2022-08-29T03:39:44.587Z,2.92
2022-08-29T03:42:16.513Z,2.75
2022-08-29T03:44:52.147Z,2.40
2022-08-29T03:47:24.124Z,2.50
2022-08-29T03:49:55.711Z,2.20
2022-08-29T03:52:27.469Z,2.47
2022-08-29T03:54:59.262Z,2.45
2022-08-29T03:57:33.983Z,2.70
2022-08-29T04:00:16.564Z,2.70
2022-08-29T04:02:51.647Z,2.85
2022-08-29T04:05:24.158Z,2.90
2022-08-29T04:07:58.525Z,2.38
2022-08-29T04:10:31.879Z,2.58
2022-08-29T04:13:04.239Z,3.15
2022-08-29T04:15:40.621Z,2.22
2022-08-29T04:18:13.834Z,2.58
2022-08-29T04:20:48.426Z,2.28
2022-08-29T04:23:21.018Z,2.70
2022-08-29T04:26:02.970Z,2.50
2022-08-29T04:28:44.891Z,2.42
2022-08-29T04:31:22.495Z,2.30
2022-08-29T04:33:55.536Z,2.70
2022-08-29T04:36:28.550Z,2.20
2022-08-29T04:39:01.043Z,2.53
2022-08-29T04:41:33.350Z,2.50
2022-08-29T04:44:09.149Z,2.60
2022-08-29T04:46:43.917Z,2.45
2022-08-29T04:49:16.654Z,2.65
2022-08-29T04:51:48.225Z,2.90
2022-08-29T04:54:19.839Z,2.53
2022-08-29T04:56:53.905Z,2.60
2022-08-29T04:59:29.486Z,2.72
2022-08-29T05:02:05.229Z,2.63
2022-08-29T05:04:36.999Z,2.83
2022-08-29T05:07:09.665Z,2.53
2022-08-29T05:09:41.285Z,2.42
2022-08-29T05:12:13.217Z,2.83
2022-08-29T05:14:44.782Z,2.55
2022-08-29T05:17:19.213Z,2.88
2022-08-29T05:19:50.709Z,2.70
2022-08-29T05:22:23.313Z,2.60
2022-08-29T05:24:56.633Z,3.22
2022-08-29T05:27:28.643Z,2.45
2022-08-29T05:30:00.360Z,3.05
2022-08-29T05:32:35.151Z,3.08
2022-08-29T05:35:07.334Z,2.58
2022-08-29T05:37:39.527Z,2.22
2022-08-29T05:40:12.309Z,2.50
2022-08-29T05:42:43.899Z,2.97
2022-08-29T05:45:15.998Z,2.28
2022-08-29T05:47:52.532Z,2.22
2022-08-29T05:50:28.024Z,2.20
2022-08-29T05:52:59.488Z,2.75
2022-08-29T05:55:31.164Z,2.58
2022-08-29T05:58:03.017Z,2.63
2022-08-29T06:00:34.804Z,2.08
2022-08-29T06:03:09.062Z,2.70
2022-08-29T06:05:41.177Z,2.55
2022-08-29T06:08:13.666Z,2.20
2022-08-29T06:10:46.402Z,2.33
2022-08-29T06:13:18.607Z,2.58
2022-08-29T06:15:50.211Z,2.47
2022-08-29T06:18:33.582Z,2.35
2022-08-29T06:21:09.020Z,2.20
2022-08-29T06:23:41.270Z,1.95
2022-08-29T06:26:14.600Z,1.70
2022-08-29T06:28:48.875Z,2.20
2022-08-29T06:31:25.162Z,2.47
2022-08-29T06:34:02.716Z,2.22
2022-08-29T06:36:36.844Z,2.15
2022-08-29T06:39:11.273Z,2.13
2022-08-29T06:41:44.895Z,2.03
2022-08-29T06:44:19.253Z,2.25
2022-08-29T06:46:53.451Z,2.15
2022-08-29T06:49:28.048Z,1.90
2022-08-29T06:52:00.376Z,2.40
2022-08-29T06:54:33.161Z,2.20
2022-08-29T06:57:04.493Z,2.20
2022-08-29T06:59:36.288Z,2.10
2022-08-29T07:02:08.523Z,2.10
2022-08-29T07:04:43.057Z,2.08
2022-08-29T07:07:14.996Z,1.90
2022-08-29T07:09:47.085Z,2.00
2022-08-29T07:12:19.094Z,1.77
2022-08-29T07:14:52.423Z,1.90
2022-08-29T07:17:25.914Z,1.80
2022-08-29T07:20:01.148Z,1.67
2022-08-29T07:22:32.615Z,1.92
2022-08-29T07:25:04.484Z,1.73
2022-08-29T07:27:39.173Z,2.20
2022-08-29T07:30:12.752Z,1.67
2022-08-29T07:32:47.309Z,1.75
2022-08-29T07:35:30.000Z,1.50
2022-08-29T07:38:03.469Z,1.95
2022-08-29T07:40:34.986Z,1.50
2022-08-29T07:43:06.890Z,1.55
2022-08-29T07:45:42.722Z,1.50
2022-08-29T07:48:19.902Z,2.17
2022-08-29T07:50:56.691Z,1.70
2022-08-29T07:53:29.167Z,2.75
2022-08-29T07:56:01.525Z,2.08
2022-08-29T07:58:33.082Z,1.75
2022-08-29T08:01:04.850Z,1.90
2022-08-29T08:03:37.292Z,1.80
2022-08-29T08:06:12.659Z,1.90
2022-08-29T08:08:46.071Z,2.30
2022-08-29T08:11:19.403Z,1.95
2022-08-29T08:13:51.538Z,2.10
2022-08-29T08:16:25.372Z,1.60
2022-08-29T08:18:58.220Z,2.00
2022-08-29T08:21:32.550Z,2.03
2022-08-29T08:24:04.671Z,1.85
2022-08-29T08:26:37.277Z,1.70
2022-08-29T08:29:09.175Z,1.63
2022-08-29T08:31:45.093Z,1.73
2022-08-29T08:34:17.162Z,2.20
2022-08-29T08:36:51.326Z,2.40
2022-08-29T08:39:23.027Z,2.03
2022-08-29T08:41:59.035Z,1.98
2022-08-29T08:47:19.779Z,2.00
2022-08-29T08:49:57.708Z,2.65
2022-08-29T08:52:43.981Z,2.20
2022-08-29T08:55:32.058Z,2.13
2022-08-29T08:58:13.767Z,2.42
2022-08-29T09:00:51.194Z,2.50
2022-08-29T09:03:47.805Z,2.00
2022-08-29T09:06:32.652Z,2.20
2022-08-29T09:09:15.118Z,3.05
2022-08-29T09:12:02.034Z,2.33
2022-08-29T09:14:48.207Z,2.42
2022-08-29T09:17:25.393Z,2.08
2022-08-29T09:19:59.078Z,2.33
2022-08-29T09:22:33.395Z,2.20
2022-08-29T09:25:11.175Z,2.40
2022-08-29T09:27:43.035Z,2.13
2022-08-29T09:30:18.605Z,2.60
2022-08-29T09:33:02.403Z,2.15
2022-08-29T09:35:40.910Z,2.40
2022-08-29T09:38:24.458Z,2.90
2022-08-29T09:41:01.711Z,2.17
2022-08-29T09:43:48.585Z,2.25
2022-08-29T09:46:26.122Z,2.70
2022-08-29T09:49:15.806Z,2.45
2022-08-29T09:51:50.085Z,2.30
2022-08-29T09:54:31.867Z,2.28
2022-08-29T09:57:12.389Z,2.45
2022-08-29T09:59:46.466Z,2.22
2022-08-29T10:02:28.852Z,2.50
2022-08-29T10:05:03.460Z,2.45
2022-08-29T10:07:37.914Z,2.70
2022-08-29T10:10:17.914Z,2.28
2022-08-29T10:12:59.041Z,2.90
2022-08-29T10:15:50.388Z,2.35
2022-08-29T10:18:31.799Z,2.05
2022-08-29T10:21:19.003Z,2.70
2022-08-29T10:24:07.858Z,2.80
2022-08-29T10:26:49.197Z,2.15
2022-08-29T10:29:36.653Z,2.40
2022-08-29T10:32:15.406Z,2.10
2022-08-29T10:35:04.319Z,2.00
2022-08-29T10:37:46.716Z,2.67
2022-08-29T10:40:25.136Z,2.63
2022-08-29T10:43:26.188Z,2.97
2022-08-29T10:46:26.731Z,3.30
2022-08-29T10:49:06.138Z,3.25
2022-08-29T10:51:44.502Z,2.97
2022-08-29T10:54:22.612Z,2.30
2022-08-29T10:56:55.394Z,2.80
2022-08-29T10:59:35.768Z,2.33
2022-08-29T11:02:20.549Z,2.35
2022-08-29T11:04:57.478Z,2.33
2022-08-29T11:07:34.826Z,3.10
2022-08-29T11:10:13.693Z,3.20
2022-08-29T11:12:53.311Z,2.70
2022-08-29T11:15:30.866Z,3.35
2022-08-29T11:18:13.150Z,3.20
2022-08-29T11:20:51.850Z,2.97
2022-08-29T11:23:32.077Z,3.50
2022-08-29T11:26:11.360Z,3.22
2022-08-29T11:28:49.945Z,3.97
2022-08-29T11:31:28.708Z,3.70
2022-08-29T11:34:25.731Z,2.83
2022-08-29T11:37:18.815Z,3.35
2022-08-29T11:40:01.134Z,3.58
2022-08-29T11:42:52.398Z,3.30
2022-08-29T11:45:35.700Z,3.55
2022-08-29T11:48:23.241Z,3.40
2022-08-29T11:50:58.582Z,3.17
2022-08-29T11:53:37.974Z,3.15
2022-08-29T11:56:28.361Z,3.05
2022-08-29T11:59:02.107Z,3.15
2022-08-29T12:02:02.129Z,3.47
2022-08-29T12:04:58.024Z,3.85
2022-08-29T12:07:44.114Z,4.18
2022-08-29T12:14:04.610Z,3.70
2022-08-29T12:16:53.873Z,3.50
2022-08-29T12:19:53.700Z,3.30
2022-08-29T12:23:04.033Z,3.50
2022-08-29T12:26:15.749Z,3.00
2022-08-29T12:28:52.274Z,3.45
2022-08-29T12:32:02.467Z,3.60
2022-08-29T12:35:01.046Z,3.17
2022-08-29T12:37:55.944Z,3.85
2022-08-29T12:40:41.351Z,3.72
2022-08-29T12:43:34.924Z,4.00
2022-08-29T12:46:12.331Z,3.88
2022-08-29T12:48:57.371Z,3.40
2022-08-29T12:51:37.800Z,3.88
2022-08-29T12:54:10.375Z,3.78
2022-08-29T12:56:45.986Z,3.38
2022-08-29T12:59:24.334Z,3.42
2022-08-29T13:02:01.753Z,3.47
2022-08-29T13:04:37.062Z,3.67
2022-08-29T13:07:10.671Z,3.55
2022-08-29T13:09:44.759Z,4.38
2022-08-29T13:12:19.552Z,3.42
2022-08-29T13:14:57.448Z,3.03
2022-08-29T13:17:34.567Z,3.42
2022-08-29T13:20:35.924Z,3.42
2022-08-29T13:23:17.401Z,3.25
2022-08-29T13:25:53.451Z,3.70
2022-08-29T13:28:31.199Z,3.22
2022-08-29T13:31:30.560Z,3.22
2022-08-29T13:34:23.577Z,3.53
2022-08-29T13:37:07.709Z,3.30
2022-08-29T13:39:45.117Z,3.92
2022-08-29T13:42:24.356Z,3.60
2022-08-29T13:45:10.784Z,3.45
2022-08-29T13:48:20.545Z,3.30
2022-08-29T13:50:51.603Z,3.33
2022-08-29T13:53:25.768Z,3.30
2022-08-29T13:55:56.611Z,3.45
2022-08-29T13:58:27.441Z,3.55
2022-08-29T14:01:29.442Z,3.75
2022-08-29T14:03:56.702Z,3.50
2022-08-29T14:06:29.213Z,3.42
2022-08-29T14:09:00.479Z,3.00
2022-08-29T14:11:31.701Z,3.72
2022-08-29T14:14:02.524Z,3.13
2022-08-29T14:16:33.374Z,3.13
2022-08-29T14:19:07.530Z,3.20
2022-08-29T14:21:38.899Z,3.28
2022-08-29T14:24:09.984Z,3.20
2022-08-29T14:26:41.188Z,2.83
2022-08-29T14:29:12.952Z,3.38
2022-08-29T14:31:43.908Z,3.35
2022-08-29T14:34:17.639Z,3.00
2022-08-29T14:36:50.266Z,2.78
2022-08-29T14:39:21.224Z,2.90
2022-08-29T14:41:57.308Z,3.08
2022-08-29T14:44:28.829Z,3.03
2022-08-29T14:46:59.665Z,2.85
2022-08-29T14:49:33.382Z,3.20
2022-08-29T14:52:04.713Z,2.78
2022-08-29T14:54:35.892Z,3.50
2022-08-29T14:57:06.735Z,3.38
2022-08-29T14:59:37.849Z,2.92
2022-08-29T15:02:09.807Z,3.00
2022-08-29T15:04:43.532Z,3.63
2022-08-29T15:07:15.812Z,3.38
2022-08-29T15:09:47.005Z,3.50
2022-08-29T15:12:20.662Z,3.25
2022-08-29T15:14:51.722Z,2.95
2022-08-29T15:17:23.741Z,3.30
2022-08-29T15:22:49.755Z,3.55
2022-08-29T15:25:20.802Z,3.63
2022-08-29T15:27:51.720Z,3.05
2022-08-29T15:30:24.853Z,3.55
2022-08-29T15:32:56.194Z,3.40
2022-08-29T15:35:30.018Z,3.20
2022-08-29T15:38:01.444Z,3.70
2022-08-29T15:40:35.801Z,3.10
2022-08-29T15:43:07.624Z,3.22
2022-08-29T15:45:38.828Z,3.22
2022-08-29T15:48:11.874Z,3.03
2022-08-29T15:50:47.988Z,2.88
2022-08-29T15:53:19.525Z,3.25
2022-08-29T15:55:50.550Z,3.47
2022-08-29T15:58:21.604Z,2.88
2022-08-29T16:00:52.753Z,2.60
2022-08-29T16:03:23.825Z,2.78
2022-08-29T16:05:57.550Z,2.70
2022-08-29T16:08:29.804Z,2.75
2022-08-29T16:11:01.216Z,3.08
2022-08-29T16:13:32.357Z,3.00
2022-08-29T16:16:03.446Z,3.13
2022-08-29T16:18:34.788Z,2.90
2022-08-29T16:21:08.599Z,2.70
2022-08-29T16:23:39.665Z,2.90
2022-08-29T16:26:11.668Z,2.85
2022-08-29T16:28:42.832Z,3.20
2022-08-29T16:31:13.988Z,3.15
2022-08-29T16:33:45.863Z,2.88
2022-08-29T16:36:21.842Z,3.15
2022-08-29T16:38:53.601Z,2.90
2022-08-29T16:41:26.970Z,3.10
2022-08-29T16:43:58.242Z,3.38
2022-08-29T16:46:30.816Z,3.15
2022-08-29T16:49:02.588Z,3.20
2022-08-29T16:51:37.055Z,3.70
2022-08-29T16:54:08.604Z,2.90
2022-08-29T16:56:40.010Z,2.97
2022-08-29T16:59:12.883Z,2.70
2022-08-29T17:01:46.443Z,3.58
2022-08-29T17:04:21.189Z,2.90
2022-08-29T17:06:55.833Z,3.10
2022-08-29T17:09:25.067Z,3.08
2022-08-29T17:11:54.443Z,3.10
2022-08-29T17:14:25.955Z,2.80
2022-08-29T17:16:58.158Z,2.90
2022-08-29T17:19:33.459Z,2.72
2022-08-29T17:22:07.725Z,2.72
2022-08-29T17:24:38.785Z,2.88
2022-08-29T17:27:10.376Z,3.33
2022-08-29T17:29:42.311Z,3.15
2022-08-29T17:32:13.696Z,2.60
2022-08-29T17:34:45.724Z,2.95
2022-08-29T17:37:19.454Z,2.90
2022-08-29T17:39:50.711Z,3.20
2022-08-29T17:42:21.878Z,2.90
2022-08-29T17:44:52.990Z,2.90
2022-08-29T17:47:25.126Z,3.00
2022-08-29T17:49:56.303Z,2.92
2022-08-29T17:52:30.334Z,3.17
2022-08-29T17:55:07.067Z,2.75
2022-08-29T17:57:38.703Z,3.20
2022-08-29T18:00:12.520Z,2.72
2022-08-29T18:02:43.882Z,2.42
2022-08-29T18:05:15.919Z,3.00
2022-08-29T18:07:49.561Z,3.22
2022-08-29T18:10:22.530Z,2.85
2022-08-29T18:12:53.648Z,2.63
2022-08-29T18:15:24.792Z,2.85
2022-08-29T18:17:56.918Z,3.17
2022-08-29T18:20:28.137Z,2.75
2022-08-29T18:23:01.865Z,3.00
2022-08-29T18:25:33.728Z,3.20
2022-08-29T18:28:07.027Z,2.85
2022-08-29T18:30:38.434Z,2.55
2022-08-29T18:33:10.165Z,2.90
2022-08-29T18:35:41.716Z,3.03
2022-08-29T18:38:16.155Z,3.05
2022-08-29T18:40:47.943Z,3.13
2022-08-29T18:43:25.420Z,2.60
2022-08-29T18:45:58.498Z,2.85
2022-08-29T18:48:29.739Z,3.13
2022-08-29T18:51:02.159Z,3.20
2022-08-29T18:53:36.294Z,2.70
2022-08-29T18:56:07.818Z,3.22
2022-08-29T18:58:40.611Z,3.05
2022-08-29T19:01:27.115Z,2.72
2022-08-29T19:04:01.382Z,2.80
2022-08-29T19:06:32.793Z,2.80
2022-08-29T19:09:06.937Z,2.35
2022-08-29T19:11:38.149Z,2.10
2022-08-29T19:14:09.840Z,1.88
2022-08-29T19:16:41.685Z,2.72
2022-08-29T19:19:14.051Z,2.55
2022-08-29T19:21:43.646Z,3.22
2022-08-29T19:24:17.383Z,2.90
2022-08-29T19:26:48.710Z,1.98
2022-08-29T19:29:19.774Z,2.53
2022-08-29T19:31:50.925Z,2.40
2022-08-29T19:34:22.483Z,2.28
2022-08-29T19:36:53.834Z,1.80
2022-08-29T19:39:28.282Z,2.08
2022-08-29T19:41:59.788Z,2.53
2022-08-29T19:44:31.440Z,2.33
2022-08-29T19:47:05.799Z,2.08
2022-08-29T19:49:36.968Z,2.30
2022-08-29T19:52:08.256Z,2.03
2022-08-29T19:54:44.247Z,2.30
2022-08-29T19:57:15.709Z,2.10
2022-08-29T19:59:47.334Z,2.60
2022-08-29T20:02:20.111Z,2.00
2022-08-29T20:04:51.706Z,2.45
2022-08-29T20:07:23.751Z,2.10
2022-08-29T20:09:58.017Z,2.00
2022-08-29T20:12:29.630Z,2.00
2022-08-29T20:15:02.530Z,1.90
2022-08-29T20:17:39.504Z,1.65
2022-08-29T20:20:15.719Z,2.15
2022-08-29T20:22:46.911Z,2.60
2022-08-29T20:25:22.260Z,2.08
2022-08-29T20:27:53.521Z,1.77
2022-08-29T20:30:27.732Z,2.08
2022-08-29T20:32:58.545Z,2.20
2022-08-29T20:35:44.723Z,2.75
2022-08-29T20:38:16.222Z,2.50
2022-08-29T20:40:50.593Z,1.98
2022-08-29T20:43:22.631Z,3.00
2022-08-29T20:45:53.855Z,2.28
2022-08-29T20:48:31.350Z,1.88
2022-08-29T20:51:04.675Z,2.03
2022-08-29T20:53:36.465Z,1.90
2022-08-29T20:56:11.531Z,1.98
2022-08-29T20:58:42.959Z,3.03
2022-08-29T21:01:14.455Z,1.92
2022-08-29T21:03:58.085Z,2.15
2022-08-29T21:06:29.825Z,2.40
2022-08-29T21:09:01.052Z,2.70
2022-08-29T21:11:35.537Z,2.08
2022-08-29T21:14:06.659Z,2.17
2022-08-29T21:16:37.803Z,1.90
2022-08-29T21:19:10.046Z,1.77
2022-08-29T21:21:43.138Z,2.58
2022-08-29T21:24:14.387Z,2.33
2022-08-29T21:26:48.632Z,2.10
2022-08-29T21:29:20.375Z,2.05
2022-08-29T21:31:52.455Z,1.92
2022-08-29T21:34:24.337Z,1.92
2022-08-29T21:36:55.096Z,1.70
2022-08-29T21:39:28.007Z,2.42
2022-08-29T21:42:03.248Z,1.85
2022-08-29T21:44:34.263Z,2.20
2022-08-29T21:47:05.243Z,2.35
2022-08-29T21:49:36.887Z,2.15
2022-08-29T21:52:08.623Z,1.92
2022-08-29T21:54:39.488Z,1.90
2022-08-29T21:57:17.684Z,2.35
2022-08-29T21:59:49.414Z,3.25
2022-08-29T22:02:20.458Z,2.00
2022-08-29T22:04:51.335Z,2.58
2022-08-29T22:07:22.546Z,2.08
2022-08-29T22:09:54.192Z,2.47
2022-08-29T22:12:28.979Z,2.28
2022-08-29T22:15:12.112Z,2.50
2022-08-29T22:17:42.888Z,1.95
2022-08-29T22:20:14.337Z,1.90
2022-08-29T22:22:45.105Z,2.13
2022-08-29T22:25:16.301Z,1.90
2022-08-29T22:27:50.026Z,2.45
2022-08-29T22:30:21.438Z,1.98
2022-08-29T22:32:59.611Z,2.85
2022-08-29T22:35:30.378Z,2.10
2022-08-29T22:38:02.253Z,2.10
2022-08-29T22:40:33.365Z,2.08
2022-08-29T22:43:06.870Z,2.25
2022-08-29T22:45:37.683Z,2.95
2022-08-29T22:48:08.719Z,2.00
2022-08-29T22:50:39.697Z,2.20
2022-08-29T22:53:10.507Z,2.42
2022-08-29T22:55:42.712Z,2.38
2022-08-29T22:58:16.317Z,3.03
2022-08-29T23:00:47.150Z,2.30
2022-08-29T23:03:18.108Z,2.30
2022-08-29T23:05:49.113Z,2.40
2022-08-29T23:08:21.235Z,1.90
2022-08-29T23:10:52.517Z,2.10
2022-08-29T23:13:26.675Z,3.35
2022-08-29T23:16:01.902Z,2.80
2022-08-29T23:18:33.048Z,2.50
2022-08-29T23:21:03.816Z,1.73
2022-08-29T23:23:35.669Z,2.53
2022-08-29T23:26:07.489Z,2.28
2022-08-29T23:28:41.072Z,1.67
2022-08-29T23:31:12.238Z,2.42
2022-08-29T23:33:43.415Z,2.42
2022-08-29T23:36:14.694Z,2.50
2022-08-29T23:38:46.066Z,2.47
2022-08-29T23:41:18.481Z,2.05
2022-08-29T23:43:52.044Z,2.33
2022-08-29T23:46:23.187Z,3.28
2022-08-29T23:48:54.370Z,2.25
2022-08-29T23:51:25.902Z,2.00
2022-08-29T23:53:57.661Z,1.60
2022-08-29T23:56:28.875Z,2.03
2022-08-29T23:59:02.701Z,1.63
